Gentle Leader — C6WY9 — position and weather

sailwx.info

Track history (hours):
 
Tides and Currents Weather Stations Pressure Air Temp Water Temp Dewpoint Dewpoint Depression Visibility Wind Speed Wind Dir Waves Ship Positions

Gentle Leader

Last reported at 2014-Nov-26 12:27 UTC. Time now 2014-Nov-26 16:20 UTC.
Position N 33°55' E 134°58'.

Length 200 m; draft 8.1 m.

Type: Cargo ship. MMSI: 311003300.

Date/timePositionNaut miles runAvg speedWind from/ knotsBaromVisibWave heightAir tempDewpointWater temp
2014-Nov-26 12:27N 33°55' E 134°58'1415.6
2014-Nov-26 11:33N 34°09' E 134°57'1312.8
2014-Nov-26 10:33N 34°21' E 134°60'1413.7
2014-Nov-26 09:33N 34°34' E 135°05'  
2014-Nov-23 11:33N 32°29' E 132°14'1717.3
2014-Nov-23 10:33N 32°11' E 132°13'1716.8
2014-Nov-23 09:33N 31°55' E 132°12'1716.6
2014-Nov-23 08:31N 31°39' E 132°03'  
2014-Nov-17 13:24N 01°17' E 104°13'1112.8
2014-Nov-17 12:33N 01°15' E 104°02'1211.8
2014-Nov-17 11:33N 01°11' E 103°51'8 8.3
2014-Nov-17 10:33N 01°17' E 103°45'0 0.1
2014-Nov-17 07:05N 01°17' E 103°45'0 0.0
2014-Nov-17 04:20N 01°17' E 103°45'1 0.8
2014-Nov-17 03:33N 01°16' E 103°45'  
Track history (hours):
 
Tides and Currents Weather Stations Pressure Air Temp Water Temp Dewpoint Dewpoint Depression Visibility Wind Speed Wind Dir Waves Ship Positions

Gentle Leader

Last reported at 2014-Nov-26 12:27 UTC. Time now 2014-Nov-26 16:20 UTC.
Position N 33°55' E 134°58'.

Length 200 m; draft 8.1 m.

Type: Cargo ship. MMSI: 311003300.

Date/timePositionNaut miles runAvg speedWind from/ knotsBaromVisibWave heightAir tempDewpointWater temp
2014-Nov-26 12:27N 33°55' E 134°58'1415.6
2014-Nov-26 11:33N 34°09' E 134°57'1312.8
2014-Nov-26 10:33N 34°21' E 134°60'1413.7
2014-Nov-26 09:33N 34°34' E 135°05'  
2014-Nov-23 11:33N 32°29' E 132°14'1717.3
2014-Nov-23 10:33N 32°11' E 132°13'1716.8
2014-Nov-23 09:33N 31°55' E 132°12'1716.6
2014-Nov-23 08:31N 31°39' E 132°03'  
2014-Nov-17 13:24N 01°17' E 104°13'1112.8
2014-Nov-17 12:33N 01°15' E 104°02'1211.8
2014-Nov-17 11:33N 01°11' E 103°51'8 8.3
2014-Nov-17 10:33N 01°17' E 103°45'0 0.1
2014-Nov-17 07:05N 01°17' E 103°45'0 0.0
2014-Nov-17 04:20N 01°17' E 103°45'1 0.8
2014-Nov-17 03:33N 01°16' E 103°45'  

Dump ship's entire track history